Time;durP1;ratioP1;P1;durP2;ratioP2;P2;SDS_P1;SDS_P2;PMS_P1;PMS_P2;Temp;Humidity;BMP_temperature;BMP_pressure;BME280_temperature;BME280_humidity;BME280_pressure;Samples;Min_cycle;Max_cycle;Signal;HPM_P1;HPM_P2
2023/10/23 00:01:59;;;;;;;0.30;0.20;;;;;;;18.60;45.78;101125.94;4952209;28;20415;-85
2023/10/23 00:04:24;;;;;;;0.23;0.20;;;;;;;18.75;45.52;101139.06;4963277;28;20443;-86
2023/10/23 00:06:51;;;;;;;0.20;0.20;;;;;;;18.82;45.47;101141.78;4949812;29;20492;-86
2023/10/23 00:09:17;;;;;;;0.20;0.20;;;;;;;18.77;45.25;101123.56;4950336;29;20397;-87
2023/10/23 00:11:45;;;;;;;0.40;0.30;;;;;;;18.70;45.91;101126.28;4939341;29;20460;-87
2023/10/23 00:14:11;;;;;;;0.20;0.20;;;;;;;18.62;46.41;101126.53;4946940;29;20438;-87
2023/10/23 00:16:36;;;;;;;2.27;0.60;;;;;;;18.63;46.31;101125.47;4934687;29;20525;-87
2023/10/23 00:19:02;;;;;;;0.45;0.32;;;;;;;18.70;46.44;101130.84;4966909;29;20450;-89
2023/10/23 00:21:30;;;;;;;0.20;0.20;;;;;;;18.69;46.61;101121.13;4967403;29;20513;-85
2023/10/23 00:23:55;;;;;;;0.47;0.47;;;;;;;18.64;46.88;101126.31;4951207;29;20393;-87
2023/10/23 00:26:24;;;;;;;0.90;0.40;;;;;;;18.49;47.41;101122.06;4957340;29;21001;-87
2023/10/23 00:28:51;;;;;;;0.63;0.40;;;;;;;18.46;47.54;101116.28;4935413;29;20405;-86
2023/10/23 00:31:17;;;;;;;0.35;0.30;;;;;;;18.50;47.48;101118.31;4964904;29;20480;-85
2023/10/23 00:33:42;;;;;;;0.60;0.50;;;;;;;18.50;47.34;101117.50;4961339;28;20441;-87
2023/10/23 00:36:10;;;;;;;0.17;0.17;;;;;;;18.48;47.24;101123.06;4970923;28;20491;-87
2023/10/23 00:38:35;;;;;;;0.60;0.50;;;;;;;18.37;47.42;101115.69;4937252;28;20399;-88
2023/10/23 00:41:02;;;;;;;1.60;0.40;;;;;;;18.48;47.18;101135.69;4952577;28;20392;-87
2023/10/23 00:43:28;;;;;;;0.60;0.60;;;;;;;18.52;47.10;101126.16;4951248;28;20404;-87
2023/10/23 00:46:03;;;;;;;0.20;0.20;;;;;;;18.63;46.68;101117.44;4967878;28;20411;-88
2023/10/23 00:48:28;;;;;;;0.17;0.10;;;;;;;18.61;46.60;101114.13;4936896;28;20395;-89
2023/10/23 00:50:57;;;;;;;0.20;0.20;;;;;;;18.62;46.39;101131.91;4952080;28;20398;-87
2023/10/23 00:53:28;;;;;;;0.30;0.20;;;;;;;18.59;46.65;101128.81;4952583;28;20838;-88
2023/10/23 00:56:02;;;;;;;0.20;0.20;;;;;;;18.59;46.53;101132.31;4953443;28;20426;-88
2023/10/23 00:58:32;;;;;;;0.10;0.10;;;;;;;18.63;46.54;101138.91;4953202;28;20408;-92
2023/10/23 01:00:58;;;;;;;0.20;0.20;;;;;;;18.67;46.41;101133.94;4965578;28;20821;-89
2023/10/23 01:03:25;;;;;;;0.10;0.10;;;;;;;18.75;45.99;101140.94;4947838;29;20442;-87
2023/10/23 01:05:51;;;;;;;0.40;0.30;;;;;;;18.82;45.76;101141.78;4916795;29;20412;-87
2023/10/23 01:08:25;;;;;;;0.20;0.20;;;;;;;18.84;45.46;101143.19;4916861;29;20580;-88
2023/10/23 01:10:51;;;;;;;0.20;0.20;;;;;;;18.88;45.30;101146.28;4931028;29;20480;-89
2023/10/23 01:13:19;;;;;;;0.20;0.20;;;;;;;18.89;45.51;101145.25;4948762;29;20406;-87
2023/10/23 01:15:45;;;;;;;0.20;0.20;;;;;;;18.87;45.36;101142.78;4932790;29;20428;-87
2023/10/23 01:18:10;;;;;;;0.30;0.30;;;;;;;18.88;45.47;101140.91;4932634;29;20487;-90
2023/10/23 01:20:36;;;;;;;0.17;0.17;;;;;;;18.88;45.24;101144.41;4932533;29;20420;-89
2023/10/23 01:23:05;;;;;;;0.20;0.20;;;;;;;18.89;45.19;101143.38;4932799;29;20473;-89
2023/10/23 01:25:30;;;;;;;0.20;0.20;;;;;;;18.83;45.42;101138.84;4916861;29;20428;-89
2023/10/23 01:27:57;;;;;;;0.10;0.10;;;;;;;18.87;45.37;101141.94;4948872;29;20409;-88
2023/10/23 01:30:22;;;;;;;0.00;0.00;;;;;;;18.88;45.37;101135.53;4932431;29;20778;-87
2023/10/23 01:32:49;;;;;;;0.03;0.03;;;;;;;18.88;45.16;101141.72;4932488;29;20432;-88
2023/10/23 01:35:15;;;;;;;0.10;0.10;;;;;;;18.87;45.12;101140.09;4947794;29;20393;-89
2023/10/23 01:37:42;;;;;;;0.40;0.23;;;;;;;18.84;45.34;101137.81;4931571;29;20412;-87
2023/10/23 01:40:09;;;;;;;0.20;0.20;;;;;;;18.84;45.39;101139.69;4918249;29;20395;-87
2023/10/23 01:42:35;;;;;;;0.17;0.17;;;;;;;18.83;45.53;101149.59;4931929;29;20440;-88
2023/10/23 01:45:00;;;;;;;0.10;0.10;;;;;;;18.81;45.35;101143.63;4913213;29;20866;-87
2023/10/23 01:47:27;;;;;;;0.20;0.20;;;;;;;18.82;45.40;101144.47;4929169;29;20956;-88
2023/10/23 01:49:53;;;;;;;0.10;0.10;;;;;;;18.83;45.41;101146.91;4929671;29;20403;-91
2023/10/23 01:52:19;;;;;;;0.10;0.10;;;;;;;18.82;45.48;101155.19;4929308;29;20486;-87
2023/10/23 01:54:45;;;;;;;0.20;0.20;;;;;;;18.80;45.57;101146.47;4931094;29;20494;-88
2023/10/23 01:57:14;;;;;;;0.20;0.20;;;;;;;18.75;45.45;101138.25;4933295;29;20391;-89
2023/10/23 01:59:42;;;;;;;0.20;0.20;;;;;;;18.75;45.65;101147.13;4916870;29;20997;-88
2023/10/23 02:02:08;;;;;;;0.10;0.10;;;;;;;18.69;45.55;101145.28;4916855;29;20453;-88
2023/10/23 02:04:35;;;;;;;0.20;0.20;;;;;;;18.72;45.61;101155.59;4932667;29;20418;-90
2023/10/23 02:07:00;;;;;;;0.30;0.30;;;;;;;18.71;45.59;101160.16;4932897;29;20410;-88
2023/10/23 02:09:29;;;;;;;0.10;0.10;;;;;;;18.66;45.94;101153.78;4916431;29;20790;-87
2023/10/23 02:11:55;;;;;;;0.20;0.20;;;;;;;18.65;45.85;101157.50;4932846;29;20418;-90
2023/10/23 02:14:23;;;;;;;0.17;0.17;;;;;;;18.61;46.31;101164.34;4884980;29;20479;-87
2023/10/23 02:16:51;;;;;;;0.17;0.17;;;;;;;18.56;46.33;101170.31;4932659;29;20483;-87
2023/10/23 02:19:19;;;;;;;0.10;0.10;;;;;;;18.52;46.63;101169.94;4931696;29;20438;-89
2023/10/23 02:21:49;;;;;;;0.13;0.13;;;;;;;18.52;46.74;101171.78;4937505;29;20486;-86
2023/10/23 02:24:21;;;;;;;0.20;0.20;;;;;;;18.49;46.80;101167.69;4935512;29;21091;-90
2023/10/23 02:26:48;;;;;;;0.10;0.10;;;;;;;18.46;46.93;101170.78;4917320;29;20406;-87
2023/10/23 02:29:14;;;;;;;0.17;0.17;;;;;;;18.49;47.11;101174.91;4932645;29;20402;-87
2023/10/23 02:31:40;;;;;;;0.20;0.20;;;;;;;18.39;47.45;101163.78;4932737;29;20455;-88
2023/10/23 02:34:07;;;;;;;0.20;0.20;;;;;;;18.33;47.75;101173.53;4916778;29;20403;-87
2023/10/23 02:36:33;;;;;;;0.10;0.10;;;;;;;18.28;48.39;101176.00;4944552;28;20409;-88
2023/10/23 02:39:02;;;;;;;0.50;0.40;;;;;;;18.22;48.50;101169.63;4952825;29;20444;-89
2023/10/23 02:41:30;;;;;;;0.10;0.10;;;;;;;18.30;48.25;101173.94;4955347;29;20805;-87
2023/10/23 02:43:56;;;;;;;0.10;0.10;;;;;;;18.37;48.25;101176.59;4977617;28;20393;-86
2023/10/23 02:46:22;;;;;;;0.20;0.20;;;;;;;18.35;48.11;101179.50;4953626;29;20473;-89
2023/10/23 02:48:47;;;;;;;0.50;0.50;;;;;;;18.28;48.04;101178.69;4953175;29;20480;-87
2023/10/23 02:51:13;;;;;;;0.20;0.20;;;;;;;18.28;48.02;101176.00;4953125;29;20408;-87
2023/10/23 02:53:38;;;;;;;0.17;0.17;;;;;;;18.15;48.35;101179.53;4953505;29;20394;-88
2023/10/23 02:56:10;;;;;;;0.60;0.60;;;;;;;17.99;49.24;101188.00;4952853;29;20471;-88
2023/10/23 02:58:35;;;;;;;0.80;0.80;;;;;;;17.70;50.23;101176.63;4955972;28;20425;-85
2023/10/23 03:01:02;;;;;;;1.13;0.40;;;;;;;17.60;50.53;101192.31;4969795;28;20462;-86
2023/10/23 03:03:34;;;;;;;0.17;0.17;;;;;;;17.61;50.24;101191.25;4977640;28;20475;-88
2023/10/23 03:06:01;;;;;;;0.33;0.33;;;;;;;17.53;50.26;101187.75;4966184;28;20413;-85
2023/10/23 03:08:27;;;;;;;0.10;0.10;;;;;;;17.56;50.23;101197.25;4928458;29;20928;-87
2023/10/23 03:10:53;;;;;;;0.40;0.40;;;;;;;17.55;49.99;101191.03;4926425;29;20413;-85
2023/10/23 03:13:20;;;;;;;1.40;1.20;;;;;;;17.54;49.98;101193.94;4903334;29;20456;-87
2023/10/23 03:15:46;;;;;;;0.20;0.10;;;;;;;17.39;50.38;101188.75;4934296;29;20780;-84
2023/10/23 03:18:14;;;;;;;1.50;1.00;;;;;;;17.27;50.78;101188.53;4916162;29;20429;-86
2023/10/23 03:20:47;;;;;;;0.15;0.15;;;;;;;17.31;50.63;101191.63;4911001;29;20421;-84
2023/10/23 03:23:13;;;;;;;0.38;0.38;;;;;;;17.32;50.68;101190.59;4895406;29;20429;-87
2023/10/23 03:25:38;;;;;;;0.13;0.13;;;;;;;17.33;50.37;101193.06;4872789;29;20428;-84
2023/10/23 03:28:06;;;;;;;0.20;0.20;;;;;;;17.40;50.32;101193.09;4855290;29;20566;-85
2023/10/23 03:30:35;;;;;;;0.20;0.20;;;;;;;17.46;50.26;101196.81;4857793;29;20447;-87
2023/10/23 03:33:03;;;;;;;0.10;0.10;;;;;;;17.59;49.65;101202.19;4872273;29;20560;-82
2023/10/23 03:35:29;;;;;;;0.30;0.30;;;;;;;17.71;49.29;101205.09;4871287;29;21246;-85
2023/10/23 03:37:59;;;;;;;0.30;0.30;;;;;;;17.75;49.22;101211.69;4868300;29;20425;-87
2023/10/23 03:40:28;;;;;;;0.22;0.22;;;;;;;17.55;50.03;101193.72;4905670;29;20571;-87
2023/10/23 03:42:54;;;;;;;0.80;0.80;;;;;;;17.39;50.98;101186.91;4904613;29;20419;-87
2023/10/23 03:45:21;;;;;;;2.60;1.00;;;;;;;17.33;51.25;101197.63;4894407;29;21056;-86
2023/10/23 03:47:49;;;;;;;0.30;0.20;;;;;;;17.25;51.64;101190.59;4910992;29;20476;-88
2023/10/23 03:50:16;;;;;;;0.82;0.70;;;;;;;17.14;52.22;101186.66;4895710;29;20498;-89
2023/10/23 03:52:48;;;;;;;0.15;0.15;;;;;;;17.06;52.43;101184.16;4948753;29;20417;-88
2023/10/23 03:55:16;;;;;;;0.57;0.57;;;;;;;17.22;51.98;101191.00;4918322;29;20492;-92
2023/10/23 03:57:42;;;;;;;0.10;0.10;;;;;;;17.25;51.82;101189.75;4932697;29;20904;-88
2023/10/23 04:00:12;;;;;;;1.02;0.80;;;;;;;17.31;51.68;101192.44;4934675;29;20417;-89
2023/10/23 04:02:39;;;;;;;0.30;0.30;;;;;;;17.26;51.73;101186.06;4950717;29;20504;-85
2023/10/23 04:05:05;;;;;;;0.10;0.10;;;;;;;17.24;51.91;101180.91;4949931;29;20492;-85
2023/10/23 04:07:32;;;;;;;0.30;0.30;;;;;;;17.32;51.59;101185.22;4950680;29;20413;-89
2023/10/23 04:10:01;;;;;;;0.30;0.30;;;;;;;17.36;51.53;101187.31;4921769;29;20416;-89
2023/10/23 04:12:28;;;;;;;1.25;0.70;;;;;;;17.31;51.40;101173.69;4904559;29;20417;-87
2023/10/23 04:15:01;;;;;;;0.30;0.30;;;;;;;17.29;51.60;101177.63;4946433;29;20415;-88
2023/10/23 04:17:30;;;;;;;0.40;0.40;;;;;;;17.24;52.05;101186.25;4937897;29;20409;-88
2023/10/23 04:19:59;;;;;;;0.70;0.50;;;;;;;17.22;51.93;101179.47;4902461;29;20414;-87
2023/10/23 04:22:47;;;;;;;0.30;0.30;;;;;;;17.32;51.67;101187.91;4959857;29;20409;-88
2023/10/23 04:25:19;;;;;;;0.50;0.50;;;;;;;17.33;51.67;101189.56;4943195;29;20420;-86
2023/10/23 04:27:47;;;;;;;0.40;0.40;;;;;;;17.33;51.47;101184.22;4945874;29;20405;-87
2023/10/23 04:30:42;;;;;;;0.40;0.40;;;;;;;17.47;51.23;101183.22;4927706;29;20714;-86
2023/10/23 04:33:21;;;;;;;0.30;0.30;;;;;;;17.56;50.86;101186.53;4938848;29;20492;-86
2023/10/23 04:35:51;;;;;;;0.10;0.10;;;;;;;17.68;50.59;101189.41;4921265;29;20440;-86
2023/10/23 04:38:55;;;;;;;0.10;0.10;;;;;;;17.69;50.42;101194.56;4905044;29;20408;-86
2023/10/23 04:41:28;;;;;;;0.10;0.10;;;;;;;17.68;50.45;101194.78;4918582;28;20407;-85
2023/10/23 04:44:09;;;;;;;0.10;0.10;;;;;;;17.79;50.09;101199.53;4953715;29;20405;-87
2023/10/23 04:49:59;;;;;;;0.10;0.10;;;;;;;17.54;50.62;101191.28;4950230;29;20845;-85
2023/10/23 04:52:29;;;;;;;0.10;0.10;;;;;;;17.40;50.99;101187.72;4954495;29;20429;-84
2023/10/23 04:54:55;;;;;;;0.50;0.50;;;;;;;17.35;51.18;101192.88;4958210;29;20394;-83
2023/10/23 04:57:21;;;;;;;0.10;0.10;;;;;;;17.52;50.62;101209.38;4942273;29;20488;-83
2023/10/23 04:59:47;;;;;;;0.20;0.20;;;;;;;17.57;50.55;101214.97;4969978;29;20457;-85
2023/10/23 05:02:12;;;;;;;0.10;0.10;;;;;;;17.61;50.67;101215.38;4954499;29;20412;-83
2023/10/23 05:04:38;;;;;;;0.20;0.20;;;;;;;17.46;50.96;101216.38;4954471;29;20413;-85
2023/10/23 05:07:06;;;;;;;0.10;0.10;;;;;;;17.39;51.30;101220.91;4970485;29;20488;-85
2023/10/23 05:09:32;;;;;;;0.20;0.20;;;;;;;17.32;51.62;101225.44;4939769;29;20415;-84
2023/10/23 05:12:01;;;;;;;0.20;0.20;;;;;;;17.26;51.93;101215.53;4936489;29;20916;-86
2023/10/23 05:14:26;;;;;;;0.88;0.40;;;;;;;17.24;52.04;101218.41;4952652;29;20416;-84
2023/10/23 05:16:52;;;;;;;0.10;0.10;;;;;;;17.32;51.61;101215.56;4951961;29;20865;-83
2023/10/23 05:19:18;;;;;;;0.20;0.20;;;;;;;17.32;51.92;101220.06;4939294;29;20624;-84
2023/10/23 05:21:43;;;;;;;1.30;0.50;;;;;;;17.43;51.88;101235.56;4936915;29;20416;-85
2023/10/23 05:24:09;;;;;;;0.20;0.20;;;;;;;17.43;51.61;101240.94;4939026;29;20412;-85
2023/10/23 05:26:35;;;;;;;0.10;0.10;;;;;;;17.39;51.76;101237.84;4953223;28;20444;-85
2023/10/23 05:29:00;;;;;;;0.20;0.20;;;;;;;17.42;52.03;101250.00;4972313;28;20410;-83
2023/10/23 05:31:26;;;;;;;0.50;0.50;;;;;;;17.41;52.16;101261.72;4976296;28;20895;-85
2023/10/23 05:33:52;;;;;;;0.20;0.20;;;;;;;17.51;51.69;101256.00;4992876;28;20388;-85
2023/10/23 05:36:17;;;;;;;0.10;0.10;;;;;;;17.72;51.12;101265.75;4960293;28;20407;-85
2023/10/23 05:38:45;;;;;;;0.77;0.40;;;;;;;17.74;51.13;101261.00;4977102;28;20769;-88
2023/10/23 05:41:11;;;;;;;0.00;0.00;;;;;;;17.42;51.86;101268.75;4976627;28;20387;-87
2023/10/23 05:43:37;;;;;;;0.10;0.10;;;;;;;17.29;52.32;101274.09;4978253;28;20406;-85
2023/10/23 05:46:03;;;;;;;0.10;0.10;;;;;;;17.50;51.93;101276.63;4993700;28;20919;-85
2023/10/23 05:48:29;;;;;;;0.50;0.50;;;;;;;17.69;51.22;101271.50;4975860;28;20775;-85
2023/10/23 05:51:02;;;;;;;0.15;0.15;;;;;;;17.94;50.72;101274.47;4975676;28;20457;-85
2023/10/23 05:53:29;;;;;;;0.10;0.10;;;;;;;18.09;50.32;101269.72;4977445;28;20782;-84
2023/10/23 05:56:03;;;;;;;0.10;0.10;;;;;;;18.11;50.22;101283.78;4976621;28;20383;-85
2023/10/23 05:58:30;;;;;;;0.10;0.10;;;;;;;18.09;50.57;101272.38;4977856;28;20478;-85
2023/10/23 06:00:56;;;;;;;0.00;0.00;;;;;;;18.14;50.10;101271.78;4978259;28;20388;-86
2023/10/23 06:03:28;;;;;;;0.20;0.20;;;;;;;18.22;49.77;101268.06;4978398;28;20413;-86
2023/10/23 06:05:56;;;;;;;0.20;0.20;;;;;;;18.31;49.81;101275.72;4977203;28;20481;-85
2023/10/23 06:08:22;;;;;;;0.22;0.22;;;;;;;18.29;49.80;101277.78;4977394;28;20471;-85
2023/10/23 06:10:47;;;;;;;0.28;0.28;;;;;;;18.21;50.28;101286.03;4976911;28;20450;-84
2023/10/23 06:13:14;;;;;;;0.70;0.70;;;;;;;18.07;50.72;101279.81;4976860;28;20921;-84
2023/10/23 06:15:40;;;;;;;0.10;0.10;;;;;;;18.07;50.79;101281.69;4977227;28;20391;-85
2023/10/23 06:18:06;;;;;;;0.15;0.15;;;;;;;18.28;50.67;101294.91;4976811;28;20835;-86
2023/10/23 06:20:32;;;;;;;0.10;0.10;;;;;;;18.41;50.26;101296.75;4975259;28;20415;-85
2023/10/23 06:22:59;;;;;;;0.33;0.33;;;;;;;18.50;49.79;101295.50;4977775;28;20413;-85
2023/10/23 06:25:29;;;;;;;0.15;0.15;;;;;;;18.69;49.67;101311.78;4975278;28;20404;-85
2023/10/23 06:27:55;;;;;;;0.08;0.08;;;;;;;18.75;49.50;101307.47;4977815;28;20755;-86
2023/10/23 06:30:21;;;;;;;0.90;0.20;;;;;;;18.92;49.27;101305.97;4973878;28;20383;-87
2023/10/23 06:32:47;;;;;;;0.00;0.00;;;;;;;19.08;49.09;101318.97;4974342;28;20401;-88
2023/10/23 06:35:12;;;;;;;0.10;0.10;;;;;;;19.13;48.93;101307.59;4977088;28;20392;-85
2023/10/23 06:37:38;;;;;;;0.10;0.10;;;;;;;19.18;48.92;101312.34;4977470;28;20397;-87
2023/10/23 06:40:05;;;;;;;0.20;0.20;;;;;;;19.22;48.84;101302.81;4976783;28;20411;-85
2023/10/23 06:42:30;;;;;;;0.50;0.50;;;;;;;19.33;48.68;101309.38;4975740;28;20406;-87
2023/10/23 06:44:57;;;;;;;0.10;0.10;;;;;;;19.36;48.58;101314.34;4975737;28;20414;-83
2023/10/23 06:47:23;;;;;;;0.10;0.10;;;;;;;19.35;48.86;101309.97;4982350;28;20403;-85
2023/10/23 06:49:48;;;;;;;0.10;0.10;;;;;;;19.38;48.80;101309.56;4980965;28;20886;-86
2023/10/23 06:52:17;;;;;;;0.20;0.20;;;;;;;19.44;48.58;101292.56;4977702;28;20450;-90
2023/10/23 06:54:42;;;;;;;0.10;0.10;;;;;;;19.66;48.35;101303.81;4979171;28;20395;-86
2023/10/23 06:57:08;;;;;;;0.28;0.22;;;;;;;19.81;48.23;101300.88;4976371;28;20395;-86
2023/10/23 06:59:35;;;;;;;0.10;0.10;;;;;;;19.97;47.73;101313.81;4976264;28;20407;-88
2023/10/23 07:02:01;;;;;;;0.10;0.10;;;;;;;19.98;47.72;101311.94;4977795;28;20395;-87
2023/10/23 07:04:31;;;;;;;0.00;0.00;;;;;;;20.11;47.78;101303.75;4977536;28;20481;-86
2023/10/23 07:06:57;;;;;;;0.22;0.22;;;;;;;20.21;47.61;101306.78;4979197;28;20404;-86
2023/10/23 07:09:23;;;;;;;0.20;0.20;;;;;;;20.31;47.53;101317.06;4976636;28;20395;-84
2023/10/23 07:11:50;;;;;;;0.20;0.20;;;;;;;20.37;47.47;101326.13;4975396;28;20838;-85
2023/10/23 07:14:15;;;;;;;0.17;0.17;;;;;;;20.34;47.31;101323.88;4975362;28;20470;-86
2023/10/23 07:16:42;;;;;;;0.10;0.10;;;;;;;20.32;47.38;101317.88;4977033;28;20419;-85
2023/10/23 07:19:11;;;;;;;0.20;0.20;;;;;;;20.38;47.22;101317.00;4976473;28;20391;-85
2023/10/23 07:21:37;;;;;;;0.20;0.15;;;;;;;20.52;47.16;101306.94;4959870;28;20561;-86
2023/10/23 07:24:03;;;;;;;0.10;0.10;;;;;;;20.64;46.95;101299.00;4975898;28;20399;-85
2023/10/23 07:26:29;;;;;;;0.20;0.20;;;;;;;20.75;46.88;101307.16;4976618;28;20477;-86
2023/10/23 07:29:03;;;;;;;0.17;0.17;;;;;;;20.91;46.74;101308.44;4979583;28;20399;-86
2023/10/23 07:31:29;;;;;;;0.10;0.10;;;;;;;20.80;46.53;101293.00;4979643;28;20395;-86
2023/10/23 07:33:54;;;;;;;0.10;0.10;;;;;;;20.80;46.73;101306.47;4978299;28;20760;-86
2023/10/23 07:36:23;;;;;;;0.10;0.10;;;;;;;20.96;46.60;101303.19;4978564;28;20485;-85
2023/10/23 07:38:52;;;;;;;0.10;0.10;;;;;;;21.09;46.50;101296.81;4978588;28;20408;-86
2023/10/23 07:41:37;;;;;;;0.30;0.30;;;;;;;21.10;46.26;101306.53;4978187;28;20466;-86
2023/10/23 07:44:07;;;;;;;0.80;0.80;;;;;;;21.16;46.33;101294.06;4976486;28;20910;-84
2023/10/23 07:46:35;;;;;;;0.10;0.10;;;;;;;21.32;46.01;101290.72;4976187;28;20894;-86
2023/10/23 07:49:02;;;;;;;0.40;0.20;;;;;;;21.49;45.81;101300.91;4975766;28;20411;-84
2023/10/23 07:51:28;;;;;;;0.70;0.70;;;;;;;21.57;45.95;101309.53;4975267;28;20407;-85
2023/10/23 07:53:53;;;;;;;0.10;0.10;;;;;;;21.70;45.75;101308.50;4976666;28;20407;-86
2023/10/23 07:56:23;;;;;;;0.10;0.10;;;;;;;21.64;45.63;101304.00;4975313;28;20383;-85
2023/10/23 07:58:51;;;;;;;1.00;0.90;;;;;;;21.65;45.53;101305.66;4974613;28;20470;-85
2023/10/23 08:01:16;;;;;;;0.30;0.30;;;;;;;21.79;45.43;101311.69;4973365;28;20643;-85
2023/10/23 08:03:47;;;;;;;0.30;0.30;;;;;;;21.90;45.14;101312.78;4985167;28;20411;-86
2023/10/23 08:06:18;;;;;;;2.60;0.30;;;;;;;21.80;44.70;101305.22;5007982;28;20415;-88
2023/10/23 08:08:44;;;;;;;0.23;0.20;;;;;;;21.88;44.89;101299.53;4965000;29;20995;-86
2023/10/23 08:11:27;;;;;;;5.00;0.70;;;;;;;22.04;44.87;101308.00;4930456;29;20405;-86
2023/10/23 08:13:53;;;;;;;0.30;0.30;;;;;;;22.06;44.58;101312.13;4955186;29;20848;-84
2023/10/23 08:16:19;;;;;;;1.30;0.65;;;;;;;22.09;44.36;101311.66;4941545;29;20415;-84
2023/10/23 08:18:45;;;;;;;0.20;0.20;;;;;;;22.12;44.39;101315.75;4937420;29;20998;-85
2023/10/23 08:21:15;;;;;;;0.20;0.20;;;;;;;22.13;44.22;101314.72;4937272;29;20425;-86
2023/10/23 08:23:58;;;;;;;0.10;0.10;;;;;;;22.20;44.17;101309.19;4953376;29;20397;-86
2023/10/23 08:26:24;;;;;;;0.20;0.20;;;;;;;22.35;44.14;101314.19;4937683;29;20408;-85
2023/10/23 08:28:50;;;;;;;0.27;0.27;;;;;;;22.37;43.96;101317.47;4936367;29;20547;-85
2023/10/23 08:31:17;;;;;;;0.10;0.10;;;;;;;22.38;44.07;101311.00;4938288;29;20471;-85
2023/10/23 08:33:50;;;;;;;0.20;0.20;;;;;;;22.47;44.16;101315.00;4938442;29;20432;-85
2023/10/23 08:36:16;;;;;;;0.30;0.30;;;;;;;22.55;43.88;101322.75;4938909;29;20400;-84
2023/10/23 08:38:41;;;;;;;0.10;0.10;;;;;;;22.69;43.92;101318.75;4937301;29;20399;-86
2023/10/23 08:41:11;;;;;;;0.10;0.10;;;;;;;22.70;43.83;101314.16;4937655;29;20499;-85
2023/10/23 08:43:40;;;;;;;0.25;0.25;;;;;;;22.75;43.52;101322.41;4937997;29;20404;-87
2023/10/23 08:46:08;;;;;;;0.30;0.30;;;;;;;22.85;43.79;101319.94;4940722;29;20498;-86
2023/10/23 08:48:35;;;;;;;0.10;0.10;;;;;;;23.00;43.35;101321.31;4938641;29;20397;-89
2023/10/23 08:51:02;;;;;;;0.10;0.10;;;;;;;23.15;42.65;101324.34;4953957;29;20481;-87
2023/10/23 08:53:45;;;;;;;0.20;0.20;;;;;;;23.16;42.27;101317.09;4952368;28;20415;-88
2023/10/23 08:56:13;;;;;;;0.10;0.10;;;;;;;23.18;41.99;101321.19;4958472;28;20472;-86
2023/10/23 08:58:48;;;;;;;0.50;0.50;;;;;;;23.09;41.05;101322.63;4975834;28;20388;-86
2023/10/23 09:01:15;;;;;;;0.30;0.30;;;;;;;23.22;41.24;101308.00;4963184;28;20435;-87
2023/10/23 09:03:41;;;;;;;0.20;0.20;;;;;;;23.38;41.06;101309.13;4976296;28;20446;-88
2023/10/23 09:06:09;;;;;;;0.17;0.17;;;;;;;23.41;41.17;101308.66;4977234;28;20423;-88
2023/10/23 09:08:37;;;;;;;0.50;0.50;;;;;;;23.47;41.21;101311.19;4977009;28;20398;-86
2023/10/23 09:11:04;;;;;;;0.10;0.10;;;;;;;23.54;41.22;101308.34;4977744;28;20410;-86
2023/10/23 09:13:39;;;;;;;0.10;0.10;;;;;;;23.64;40.71;101308.53;4977530;28;20421;-86
2023/10/23 09:16:06;;;;;;;0.10;0.10;;;;;;;23.74;40.93;101304.38;4982681;28;20419;-90
2023/10/23 09:18:51;;;;;;;0.30;0.20;;;;;;;23.83;40.89;101300.22;4985633;28;20426;-88
2023/10/23 09:21:17;;;;;;;0.17;0.17;;;;;;;23.94;40.61;101293.09;4978781;28;20415;-86
2023/10/23 09:23:53;;;;;;;0.10;0.10;;;;;;;23.89;39.95;101303.84;4979998;28;20391;-86
2023/10/23 09:26:22;;;;;;;0.10;0.10;;;;;;;23.87;38.89;101295.97;4960722;28;20430;-86
2023/10/23 09:28:51;;;;;;;0.10;0.10;;;;;;;24.20;38.76;101299.75;4976825;28;20409;-87
2023/10/23 09:31:17;;;;;;;0.10;0.10;;;;;;;24.21;38.90;101293.28;4991893;28;20421;-89
2023/10/23 09:33:49;;;;;;;0.10;0.10;;;;;;;24.33;38.13;101302.13;4978132;28;20407;-85
2023/10/23 09:36:21;;;;;;;0.30;0.30;;;;;;;24.32;38.12;101281.50;4978508;28;20460;-88
2023/10/23 09:38:59;;;;;;;0.10;0.10;;;;;;;24.46;38.20;101292.03;4979083;28;20434;-89
2023/10/23 09:41:26;;;;;;;0.13;0.13;;;;;;;24.57;38.47;101288.41;4977497;28;20482;-88
2023/10/23 09:43:54;;;;;;;1.25;0.45;;;;;;;24.64;38.35;101277.41;4986078;23;20423;-87
2023/10/23 09:46:20;;;;;;;0.13;0.13;;;;;;;24.65;37.42;101276.31;4997913;28;20513;-85
2023/10/23 09:48:47;;;;;;;0.10;0.10;;;;;;;24.58;37.45;101271.09;4997802;28;20417;-88
2023/10/23 09:51:15;;;;;;;0.25;0.25;;;;;;;24.74;37.23;101267.50;4999618;28;20397;-87
2023/10/23 09:53:59;;;;;;;0.20;0.13;;;;;;;24.97;36.84;101268.31;5001526;28;20405;-85
2023/10/23 09:56:31;;;;;;;0.10;0.10;;;;;;;25.10;36.85;101269.81;4998152;28;20382;-87
2023/10/23 09:59:04;;;;;;;0.20;0.20;;;;;;;25.07;36.47;101260.31;4999507;28;20394;-87
2023/10/23 10:01:40;;;;;;;0.70;0.70;;;;;;;25.07;36.04;101257.59;4997858;28;20481;-87
2023/10/23 10:04:16;;;;;;;0.30;0.30;;;;;;;25.13;35.66;101259.28;4996281;28;20389;-87
2023/10/23 10:06:53;;;;;;;0.10;0.10;;;;;;;25.23;35.58;101242.31;4995991;28;20577;-88
2023/10/23 10:09:22;;;;;;;0.20;0.20;;;;;;;25.31;35.15;101241.06;4995806;28;20402;-87
2023/10/23 10:11:49;;;;;;;0.10;0.10;;;;;;;25.30;34.15;101250.25;4995697;28;20398;-87
2023/10/23 10:14:17;;;;;;;0.10;0.10;;;;;;;25.42;34.80;101241.97;5001643;28;20389;-85
2023/10/23 10:16:48;;;;;;;0.10;0.10;;;;;;;25.47;34.05;101237.41;4999203;28;20457;-87
2023/10/23 10:19:17;;;;;;;0.30;0.20;;;;;;;25.58;34.35;101230.19;4979913;28;20402;-85
2023/10/23 10:22:07;;;;;;;0.10;0.10;;;;;;;25.55;34.24;101231.53;4963190;28;20414;-89
2023/10/23 10:24:35;;;;;;;0.10;0.10;;;;;;;25.62;34.22;101223.16;4997543;28;20414;-86
2023/10/23 10:27:03;;;;;;;0.13;0.13;;;;;;;25.71;34.47;101216.19;4997678;28;20429;-89
2023/10/23 10:29:32;;;;;;;0.10;0.10;;;;;;;25.79;33.94;101214.88;4998869;28;20385;-87
2023/10/23 10:32:08;;;;;;;4.40;1.40;;;;;;;25.85;33.92;101216.56;4996171;28;20409;-86
2023/10/23 10:34:35;;;;;;;0.40;0.40;;;;;;;25.87;33.74;101211.66;4997117;28;20398;-87
2023/10/23 10:37:05;;;;;;;0.10;0.10;;;;;;;25.80;34.03;101202.94;4996902;28;20406;-86
2023/10/23 10:39:46;;;;;;;1.90;1.45;;;;;;;25.91;34.08;101207.38;4997769;28;20396;-87
2023/10/23 10:42:20;;;;;;;0.20;0.20;;;;;;;25.85;33.46;101208.41;4997016;28;20390;-87
2023/10/23 10:44:52;;;;;;;0.20;0.10;;;;;;;25.91;33.35;101196.50;4992715;28;20418;-87
2023/10/23 10:47:19;;;;;;;0.13;0.13;;;;;;;26.13;33.46;101193.69;5012976;28;20408;-88
2023/10/23 10:49:46;;;;;;;0.15;0.15;;;;;;;26.15;33.13;101190.72;5013588;28;20390;-87
2023/10/23 10:52:30;;;;;;;0.10;0.10;;;;;;;26.03;32.74;101180.03;4997161;28;20428;-86
2023/10/23 10:55:00;;;;;;;0.10;0.10;;;;;;;26.09;32.80;101192.59;4999686;28;20390;-85
2023/10/23 10:57:32;;;;;;;0.20;0.20;;;;;;;26.27;32.65;101183.19;4981236;28;20401;-86
2023/10/23 10:59:59;;;;;;;0.20;0.20;;;;;;;26.34;32.81;101182.91;5001177;28;20416;-87
2023/10/23 11:02:26;;;;;;;0.40;0.40;;;;;;;26.20;32.60;101182.59;4999940;28;20397;-89
2023/10/23 11:04:51;;;;;;;0.25;0.25;;;;;;;26.27;32.52;101175.03;4995737;28;20444;-86
2023/10/23 11:07:27;;;;;;;0.20;0.20;;;;;;;26.47;32.68;101174.28;4997887;28;20540;-87
2023/10/23 11:09:55;;;;;;;0.10;0.10;;;;;;;26.57;33.11;101162.63;4996867;28;20398;-86
2023/10/23 11:12:24;;;;;;;0.10;0.10;;;;;;;26.61;33.10;101168.38;4999810;28;20390;-86
2023/10/23 11:14:52;;;;;;;0.10;0.10;;;;;;;26.46;33.73;101171.84;4996385;28;20386;-87
2023/10/23 11:17:23;;;;;;;0.30;0.30;;;;;;;26.54;32.68;101170.50;5013511;28;20397;-86
2023/10/23 11:19:52;;;;;;;0.20;0.20;;;;;;;26.47;33.35;101168.03;4996669;28;20473;-87
2023/10/23 11:22:18;;;;;;;0.22;0.20;;;;;;;26.54;33.37;101160.44;4994435;28;20402;-88
2023/10/23 11:24:47;;;;;;;1.30;0.70;;;;;;;26.65;32.76;101166.75;4996241;28;20402;-87
2023/10/23 11:27:15;;;;;;;0.20;0.20;;;;;;;26.42;34.06;101149.00;4994808;28;20397;-86
2023/10/23 11:29:52;;;;;;;0.13;0.10;;;;;;;26.40;34.62;101148.41;4996378;28;20458;-87
2023/10/23 11:32:22;;;;;;;0.30;0.30;;;;;;;26.45;34.49;101156.59;4998176;28;20401;-87
2023/10/23 11:34:52;;;;;;;0.10;0.10;;;;;;;26.49;33.34;101144.13;4995931;28;20396;-86